WetterOnline ( https://www.wetteronline.de )

Wetter aktuell Bonn

Aktuelles Wetter: Königswinter-Heiderhof (147m)

6-stündlich | Neueste Meldungen
Ortszeit Temperatur Wetter
Fr, 19.04. 8:00 5.0° C leichter Regen
Fr, 19.04. 2:00 6.2° C wolkig
Do, 18.04. 20:00 9.4° C bedeckt
Do, 18.04. 14:00 10.5° C wolkig
Do, 18.04. 8:00 4.4° C Regen
Do, 18.04. 2:00 3.8° C bewölkt
Mi, 17.04. 20:00 5.5° C leichter Regen
Mi, 17.04. 14:00 7.4° C bewölkt
Ortszeit Temperatur Wetter
Fr, 19.04. 11:00 7.1° C Sprühregen
Fr, 19.04. 10:50 7.1° C Sprühregen
Fr, 19.04. 10:40 7.0° C leichter Regen
Fr, 19.04. 10:30 7.0° C leichter Regen
Fr, 19.04. 10:20 7.0° C leichter Regen
Fr, 19.04. 10:10 6.8° C bedeckt
Fr, 19.04. 10:00 6.4° C Regen
Fr, 19.04. 9:30 6.0° C leichter Regen
Fr, 19.04. 9:00 5.3° C leichter Regen
Fr, 19.04. 8:30 5.0° C leichter Regen
Fr, 19.04. 8:00 5.0° C leichter Regen
Ortszeit Relative Feuchte Sichtweite
Fr, 19.04. 8:00 86% 50 km
Fr, 19.04. 2:00 78% 50 km
Do, 18.04. 20:00 57% >70 km
Do, 18.04. 14:00 59% 55 km
Do, 18.04. 8:00 96% 4.2 km
Do, 18.04. 2:00 96% 9 km
Mi, 17.04. 20:00 84% 30 km
Mi, 17.04. 14:00 79% 50 km
Ortszeit Relative Feuchte Sichtweite
Fr, 19.04. 11:00 87% 60 km
Fr, 19.04. 10:50 87% -
Fr, 19.04. 10:40 86% -
Fr, 19.04. 10:30 84% 45 km
Fr, 19.04. 10:20 84% -
Fr, 19.04. 10:10 83% -
Fr, 19.04. 10:00 84% >70 km
Fr, 19.04. 9:30 85% 30 km
Fr, 19.04. 9:00 88% 50 km
Fr, 19.04. 8:30 88% 30 km
Fr, 19.04. 8:00 86% 50 km
Ortszeit Niederschlagsmenge Niederschlagsart
Fr, 19.04. 8:00 1 l/m2 in 12 Std. Regen
Fr, 19.04. 2:00 0.0 l/m2 in 6 Std. -
Do, 18.04. 20:00 0.1 l/m2 in 12 Std. -
Do, 18.04. 14:00 0.1 l/m2 in 6 Std. Regen
Do, 18.04. 8:00 3 l/m2 in 12 Std. Regen
Do, 18.04. 2:00 3 l/m2 in 6 Std. Regen
Mi, 17.04. 20:00 0.9 l/m2 in 12 Std. Regen
Mi, 17.04. 14:00 0.1 l/m2 in 6 Std. Regen
Ortszeit Niederschlagsmenge Niederschlagsart
Fr, 19.04. 11:00 <0.05 l/m2 in 1 Std. Regen
Fr, 19.04. 10:50 keine Meldung -
Fr, 19.04. 10:40 keine Meldung -
Fr, 19.04. 10:30 <0.05 l/m2 in 30 Min -
Fr, 19.04. 10:20 keine Meldung -
Fr, 19.04. 10:10 keine Meldung -
Fr, 19.04. 10:00 0.1 l/m2 in 1 Std. Regen
Fr, 19.04. 9:30 0.1 l/m2 in 30 Min -
Fr, 19.04. 9:00 0.5 l/m2 in 1 Std. Regen
Fr, 19.04. 8:30 0.2 l/m2 in 30 Min -
Fr, 19.04. 8:00 0.6 l/m2 in 1 Std. Regen
Ortszeit Stärke Spitze Richtung
km/h Bft. km/h Grad Sektor
Fr, 19.04. 8:00 20 4 59 220° SW
Fr, 19.04. 2:00 14 3 18 200° S
Do, 18.04. 20:00 9 2 28 290° W
Do, 18.04. 14:00 9 2 24 320° NW
Do, 18.04. 8:00 9 2 19 320° NW
Do, 18.04. 2:00 7 2 22 260° W
Mi, 17.04. 20:00 13 3 33 240° SW
Mi, 17.04. 14:00 7 2 32 310° NW
Ortszeit Stärke Spitze Richtung
km/h Bft. km/h Grad Sektor
Fr, 19.04. 11:00 26 4 44 240° SW
Fr, 19.04. 10:50 26 4 - 240° SW
Fr, 19.04. 10:40 28 4 - 240° SW
Fr, 19.04. 10:30 31 5 43 240° SW
Fr, 19.04. 10:20 31 5 - 240° SW
Fr, 19.04. 10:10 29 5 - 240° SW
Fr, 19.04. 10:00 29 5 47 240° SW
Fr, 19.04. 9:30 29 5 47 230° SW
Fr, 19.04. 9:00 22 4 36 220° SW
Fr, 19.04. 8:30 19 3 31 210° SW
Fr, 19.04. 8:00 20 4 44 220° SW
Ortszeit Untergrenze Bedeckung Gattung
total tief tief mittel hoch
Fr, 19.04. 8:00 630 m 8/8 8/8 - - -
Fr, 19.04. 2:00 1500 m 8/8 1/8 - - -
Do, 18.04. 20:00 1800 m 8/8 8/8 - - -
Do, 18.04. 14:00 900 m 6/8 6/8 - - -
Do, 18.04. 8:00 90 m 8/8 8/8 - - -
Do, 18.04. 2:00 90 m 7/8 7/8 - - -
Mi, 17.04. 20:00 720 m 8/8 8/8 - - -
Mi, 17.04. 14:00 480 m 7/8 7/8 - - -
Ortszeit Bedeckungsgrad in Achtel und Wolkenuntergrenze
Fr, 19.04. 11:00 7(420m)
Fr, 19.04. 10:50 7(420m)
Fr, 19.04. 10:40 7
Fr, 19.04. 10:30 8(510m)
Fr, 19.04. 10:20 8(510m)
Fr, 19.04. 10:10 8
Fr, 19.04. 10:00 8(540m)
Fr, 19.04. 9:30 8(600m)
Fr, 19.04. 9:00 8(630m)
Fr, 19.04. 8:30 8(660m)
Fr, 19.04. 8:00 8(630m)
Ortszeit Luftdruck NN (hPa) Tendenz (hPa in 3 Std.)
Fr, 19.04. 8:00 1012 - 3,0
Fr, 19.04. 2:00 1018 - 1,6
Do, 18.04. 20:00 1020 - 0,1
Do, 18.04. 14:00 1020 + 0,7
Do, 18.04. 8:00 1017 + 2,0
Do, 18.04. 2:00 1014 + 1,0
Mi, 17.04. 20:00 1012 + 0,2
Mi, 17.04. 14:00 1012 - 0,6
Ortszeit Luftdruck NN (hPa) Tendenz (hPa in 3 Std.)
Fr, 19.04. 11:00 1009 - 2,6
Fr, 19.04. 10:50 1009 keine Meldung
Fr, 19.04. 10:40 1010 keine Meldung
Fr, 19.04. 10:30 1010 - 3,0
Fr, 19.04. 10:20 1010 keine Meldung
Fr, 19.04. 10:10 1010 keine Meldung
Fr, 19.04. 10:00 1010 - 3,0
Fr, 19.04. 9:30 1010 - 3,2
Fr, 19.04. 9:00 1011 - 3,1
Fr, 19.04. 8:30 1012 - 3,0
Fr, 19.04. 8:00 1012 - 3,0
Ortszeit Schneehöhe (cm)
Fr, 19.04. 8:00 0
Fr, 19.04. 2:00 0
Do, 18.04. 20:00 0
Do, 18.04. 14:00 0
Do, 18.04. 8:00 0
Do, 18.04. 2:00 0
Mi, 17.04. 20:00 0
Mi, 17.04. 14:00 0
Ortszeit Schneehöhe (cm)
Fr, 19.04. 11:00 0
Fr, 19.04. 10:50 0
Fr, 19.04. 10:40 -
Fr, 19.04. 10:30 0
Fr, 19.04. 10:20 0
Fr, 19.04. 10:10 -
Fr, 19.04. 10:00 0
Fr, 19.04. 9:30 0
Fr, 19.04. 9:00 0
Fr, 19.04. 8:30 0
Fr, 19.04. 8:00 0
Link zu dieser Seite / Seite empfehlen

Das Wetter in ...